Time;durP1;ratioP1;P1;durP2;ratioP2;P2;SDS_P1;SDS_P2;PMS_P1;PMS_P2;Temp;Humidity;BMP_temperature;BMP_pressure;BME280_temperature;BME280_humidity;BME280_pressure;Samples;Min_cycle;Max_cycle;Signal;HPM_P1;HPM_P2
2022/12/31 00:00:14;;;;;;;14.93;6.80;;;;;;;6.80;92.23;99965.14;3555499;82;25805;-90
2022/12/31 00:05:15;;;;;;;18.30;7.93;;;;;;;6.86;91.98;99974.62;3544453;82;98493;-93
2022/12/31 00:10:18;;;;;;;17.17;7.50;;;;;;;6.91;91.99;99970.79;3536820;82;25761;-93
2022/12/31 00:15:19;;;;;;;15.95;6.97;;;;;;;6.96;91.63;99965.02;3552655;81;98365;-88
2022/12/31 00:20:19;;;;;;;14.00;6.07;;;;;;;7.06;91.47;99981.64;3561529;82;25717;-86
2022/12/31 00:25:20;;;;;;;13.77;6.00;;;;;;;7.18;91.42;99968.34;3546747;81;98173;-91
2022/12/31 00:30:21;;;;;;;10.83;4.97;;;;;;;7.28;91.62;99967.17;3535881;82;32439;-95
2022/12/31 00:35:22;;;;;;;15.10;5.53;;;;;;;7.37;91.92;99963.59;3547649;81;98416;-92
2022/12/31 00:40:23;;;;;;;12.27;5.57;;;;;;;7.43;91.86;99943.55;3555776;82;32339;-89
2022/12/31 00:45:26;;;;;;;14.30;5.45;;;;;;;7.49;91.93;99959.30;3551492;82;98489;-93
2022/12/31 00:50:27;;;;;;;12.10;5.40;;;;;;;7.55;91.99;99952.92;3549982;82;34651;-89
2022/12/31 00:55:29;;;;;;;13.97;5.83;;;;;;;7.61;91.92;99957.73;3549890;81;97836;-90
2022/12/31 01:00:30;;;;;;;13.50;5.97;;;;;;;7.67;91.89;99982.27;3554520;82;26509;-89
2022/12/31 01:05:33;;;;;;;13.00;6.10;;;;;;;7.79;91.63;99977.95;3550465;81;98325;-89
2022/12/31 01:15:52;;;;;;;13.72;6.08;;;;;;;7.95;91.59;99954.48;3550137;81;97908;-92
2022/12/31 01:20:53;;;;;;;12.93;5.27;;;;;;;8.04;91.50;99958.55;3553923;81;26173;-90
2022/12/31 01:25:54;;;;;;;14.23;6.03;;;;;;;8.12;91.50;99960.81;3549912;81;97940;-90
2022/12/31 01:30:56;;;;;;;10.40;4.37;;;;;;;8.17;91.43;99957.14;3551584;82;32797;-87
2022/12/31 01:36:03;;;;;;;11.67;5.77;;;;;;;8.22;91.53;99959.59;3550116;82;98061;-93
2022/12/31 01:41:08;;;;;;;11.40;4.33;;;;;;;8.27;91.51;99977.09;3547652;82;97264;-90
2022/12/31 01:46:12;;;;;;;12.50;5.15;;;;;;;8.31;91.46;99956.00;3558481;80;34573;-93
2022/12/31 01:51:13;;;;;;;12.33;5.15;;;;;;;8.36;91.46;99978.98;3554175;80;98374;-93
2022/12/31 01:56:14;;;;;;;12.90;5.30;;;;;;;8.41;91.54;99964.14;3559134;82;25740;-86
2022/12/31 02:01:20;;;;;;;13.13;5.90;;;;;;;8.41;91.68;99966.28;3551298;82;98371;-88
2022/12/31 02:06:31;;;;;;;13.20;5.50;;;;;;;8.41;91.94;99966.28;3537008;83;25769;-86
2022/12/31 02:11:36;;;;;;;12.43;5.30;;;;;;;8.44;92.08;99974.34;3527133;82;98774;-93
2022/12/31 02:16:54;;;;;;;11.55;5.37;;;;;;;8.45;92.34;99973.20;3538336;82;35168;-94
2022/12/31 02:22:29;;;;;;;12.47;5.78;;;;;;;8.45;92.54;99976.72;3529978;83;98707;-94
2022/12/31 02:28:10;;;;;;;11.48;5.60;;;;;;;8.46;92.73;99972.03;3540204;83;34716;-95
2022/12/31 02:33:36;;;;;;;13.62;5.42;;;;;;;8.43;93.01;99959.86;3535093;82;98194;-87
2022/12/31 02:38:44;;;;;;;15.15;5.80;;;;;;;8.40;93.20;99944.14;3510829;83;34608;-90
2022/12/31 02:43:46;;;;;;;12.93;5.85;;;;;;;8.37;93.46;99958.61;3535350;82;98156;-87
2022/12/31 02:49:01;;;;;;;14.47;6.22;;;;;;;8.37;93.74;99964.67;3537232;83;34657;-90
2022/12/31 02:54:32;;;;;;;11.30;5.50;;;;;;;8.36;93.93;99985.83;3531153;82;98605;-88
2022/12/31 03:05:16;;;;;;;11.53;5.67;;;;;;;8.34;94.38;99984.02;3539983;82;98422;-88
2022/12/31 03:10:17;;;;;;;12.95;5.95;;;;;;;8.32;94.60;99991.84;3553557;82;34585;-87
2022/12/31 03:15:33;;;;;;;13.63;5.80;;;;;;;8.33;94.88;100018.09;3547099;81;97995;-88
2022/12/31 03:26:10;;;;;;;13.20;5.42;;;;;;;8.35;95.42;100006.76;3561740;82;34623;-91
2022/12/31 03:31:11;;;;;;;10.98;5.53;;;;;;;8.37;95.91;99997.57;3549772;82;98362;-88
2022/12/31 03:36:14;;;;;;;11.43;5.67;;;;;;;8.39;96.53;99993.30;3561458;82;25808;-93
2022/12/31 03:41:14;;;;;;;10.80;5.40;;;;;;;8.39;96.53;99993.30;3553768;81;98671;-92
2022/12/31 03:46:15;;;;;;;10.90;4.70;;;;;;;8.40;96.63;100003.09;3569009;80;25645;-90
2022/12/31 03:51:16;;;;;;;9.87;4.70;;;;;;;8.43;96.89;100000.19;3554852;80;98845;-87
2022/12/31 03:56:17;;;;;;;9.97;4.37;;;;;;;8.47;97.21;99999.66;3558177;82;32177;-87
2022/12/31 04:01:18;;;;;;;10.67;5.03;;;;;;;8.51;97.38;100001.88;3551589;81;98453;-86
2022/12/31 04:06:19;;;;;;;12.43;5.37;;;;;;;8.52;97.65;100006.19;3549692;82;32303;-87
2022/12/31 04:11:19;;;;;;;11.37;5.40;;;;;;;8.55;97.85;100013.66;3533231;82;98415;-90
2022/12/31 04:16:20;;;;;;;9.93;4.63;;;;;;;8.56;98.01;100006.43;3541500;82;32231;-86
2022/12/31 04:21:21;;;;;;;12.00;4.85;;;;;;;8.58;98.12;100017.84;3535320;82;98512;-85
2022/12/31 04:26:22;;;;;;;11.13;4.57;;;;;;;8.60;98.24;100029.78;3541557;83;27451;-86
2022/12/31 04:31:23;;;;;;;10.23;4.43;;;;;;;8.61;98.36;100031.39;3534203;82;98670;-89
2022/12/31 04:36:24;;;;;;;11.00;5.23;;;;;;;8.62;98.43;100013.77;3541355;83;26021;-90
2022/12/31 04:41:25;;;;;;;10.53;5.10;;;;;;;8.62;98.44;100005.53;3533593;82;98724;-89
2022/12/31 04:46:31;;;;;;;10.60;4.50;;;;;;;8.59;98.43;99996.09;3541552;82;25751;-87
2022/12/31 04:51:33;;;;;;;10.93;4.22;;;;;;;8.56;98.45;99999.58;3533929;82;98199;-87
2022/12/31 04:56:35;;;;;;;9.53;4.30;;;;;;;8.53;98.59;100007.20;3536968;82;25793;-86
2022/12/31 05:01:37;;;;;;;9.95;4.60;;;;;;;8.50;98.74;100013.41;3530550;82;98418;-86
2022/12/31 05:06:38;;;;;;;9.33;4.17;;;;;;;8.49;99.00;100018.70;3539176;82;33144;-86
2022/12/31 05:11:38;;;;;;;10.53;5.37;;;;;;;8.49;98.99;100015.16;3533298;82;98793;-89
2022/12/31 05:16:39;;;;;;;9.00;4.27;;;;;;;8.50;99.27;100020.87;3540403;82;26027;-86
2022/12/31 05:21:40;;;;;;;8.95;4.42;;;;;;;8.49;99.42;100011.84;3530077;82;98741;-86
2022/12/31 05:26:41;;;;;;;8.73;4.20;;;;;;;8.51;99.55;100003.25;3540050;83;25647;-90
2022/12/31 05:31:42;;;;;;;10.40;4.50;;;;;;;8.52;99.73;100004.82;3534960;83;98668;-86
2022/12/31 05:36:42;;;;;;;10.23;4.80;;;;;;;8.52;99.88;100017.16;3542140;83;25852;-90
2022/12/31 05:41:43;;;;;;;12.07;4.47;;;;;;;8.52;99.97;100020.70;3532802;82;98320;-85
2022/12/31 05:46:45;;;;;;;8.97;4.10;;;;;;;8.52;100.00;100006.99;3540177;81;33096;-91
2022/12/31 05:51:46;;;;;;;9.08;4.62;;;;;;;8.55;100.00;100014.45;3536237;81;98510;-94
2022/12/31 05:56:49;;;;;;;9.83;4.30;;;;;;;8.59;100.00;100018.61;3541860;83;33509;-94
2022/12/31 06:01:50;;;;;;;10.48;4.58;;;;;;;8.59;100.00;100018.61;3531526;82;98619;-91
2022/12/31 06:06:51;;;;;;;8.40;4.00;;;;;;;8.64;100.00;100039.66;3552222;82;33038;-85
2022/12/31 06:11:52;;;;;;;9.87;4.67;;;;;;;8.66;100.00;100024.98;3548163;81;98592;-88
2022/12/31 06:16:52;;;;;;;11.07;4.57;;;;;;;8.70;100.00;100021.70;3534429;82;33621;-90
2022/12/31 06:21:53;;;;;;;7.77;3.60;;;;;;;8.72;100.00;100015.84;3552011;81;98571;-85
2022/12/31 06:26:54;;;;;;;9.83;3.93;;;;;;;8.76;100.00;100016.66;3559404;82;33012;-84
2022/12/31 06:31:55;;;;;;;8.18;3.62;;;;;;;8.78;100.00;100039.81;3528492;82;98448;-87
2022/12/31 06:36:56;;;;;;;9.93;4.27;;;;;;;8.80;100.00;100035.33;3556174;82;32985;-89
2022/12/31 06:41:57;;;;;;;8.77;4.20;;;;;;;8.84;100.00;100044.41;3552579;81;98512;-86
2022/12/31 06:46:57;;;;;;;10.48;4.25;;;;;;;8.88;100.00;100038.38;3554020;82;33493;-84
2022/12/31 06:51:58;;;;;;;8.48;3.75;;;;;;;8.90;100.00;100028.58;3548581;82;98980;-95
2022/12/31 06:57:00;;;;;;;8.20;3.93;;;;;;;8.94;100.00;100022.56;3561112;82;31482;-95
2022/12/31 07:02:23;;;;;;;7.97;3.73;;;;;;;8.98;100.00;100021.22;3553058;82;98783;-85
2022/12/31 07:07:41;;;;;;;9.33;4.10;;;;;;;9.00;100.00;99985.97;3544043;82;33100;-91
2022/12/31 07:13:00;;;;;;;9.78;3.98;;;;;;;9.02;100.00;99991.30;3528432;83;98120;-84
2022/12/31 07:18:34;;;;;;;9.73;4.00;;;;;;;9.05;100.00;99980.91;3540663;83;33133;-87
2022/12/31 07:23:36;;;;;;;6.87;3.58;;;;;;;9.08;100.00;99991.16;3532045;83;98216;-90
2022/12/31 07:28:57;;;;;;;7.87;3.70;;;;;;;9.11;100.00;100010.97;3541479;82;31468;-94
2022/12/31 07:34:01;;;;;;;8.53;3.72;;;;;;;9.16;100.00;100027.11;3468618;82;98417;-91
2022/12/31 07:39:22;;;;;;;8.73;3.37;;;;;;;9.22;100.00;100019.33;3538784;83;33099;-94
2022/12/31 07:44:37;;;;;;;7.35;3.35;;;;;;;9.30;100.00;100025.88;3535272;82;98193;-90
2022/12/31 07:49:41;;;;;;;8.48;3.62;;;;;;;9.40;100.00;100029.89;3546561;83;25328;-89
2022/12/31 07:54:42;;;;;;;8.00;3.80;;;;;;;9.48;100.00;100036.44;3530310;82;98509;-87
2022/12/31 08:00:01;;;;;;;9.73;4.00;;;;;;;9.58;100.00;100007.48;3538223;83;33070;-94
2022/12/31 08:05:25;;;;;;;7.25;3.00;;;;;;;9.64;100.00;100009.50;3530787;82;98111;-87
2022/12/31 08:10:58;;;;;;;9.70;4.10;;;;;;;9.71;100.00;100010.92;3542279;82;33143;-84
2022/12/31 08:16:00;;;;;;;8.70;3.83;;;;;;;9.77;100.00;100014.13;3538743;82;98152;-91
2022/12/31 08:21:39;;;;;;;8.20;3.90;;;;;;;9.77;100.00;100030.61;3515558;82;98865;-89
2022/12/31 08:27:03;;;;;;;9.95;4.60;;;;;;;9.69;100.00;100000.91;3546272;82;33258;-96
2022/12/31 08:32:25;;;;;;;9.48;4.37;;;;;;;9.67;100.00;100001.88;3538343;82;98782;-89
2022/12/31 08:38:18;;;;;;;10.10;4.75;;;;;;;9.66;100.00;99996.77;3541617;82;33855;-86
2022/12/31 08:43:42;;;;;;;8.95;4.15;;;;;;;9.67;100.00;100000.52;3426093;85;98754;-90
2022/12/31 08:48:46;;;;;;;9.38;4.90;;;;;;;9.75;100.00;99986.25;3537512;82;33816;-90
2022/12/31 08:54:06;;;;;;;9.18;4.37;;;;;;;9.84;100.00;99986.11;3544519;81;98111;-92
2022/12/31 08:59:32;;;;;;;8.95;4.67;;;;;;;9.94;100.00;99992.27;3552714;81;33689;-93
2022/12/31 09:05:03;;;;;;;9.65;4.28;;;;;;;10.08;100.00;99988.84;3537505;82;98160;-88
2022/12/31 09:10:15;;;;;;;10.15;4.33;;;;;;;10.22;100.00;99998.53;3535794;83;33165;-88
2022/12/31 09:15:27;;;;;;;8.65;3.65;;;;;;;10.36;100.00;99980.74;3524862;82;98805;-92
2022/12/31 09:20:32;;;;;;;9.45;4.62;;;;;;;10.48;100.00;99971.54;3532224;82;33107;-93
2022/12/31 09:25:39;;;;;;;8.93;4.95;;;;;;;10.59;100.00;99968.84;3524647;83;98739;-92
2022/12/31 09:31:03;;;;;;;8.55;4.58;;;;;;;10.71;100.00;99978.12;3530494;82;33982;-90
2022/12/31 09:36:13;;;;;;;9.35;4.15;;;;;;;10.80;100.00;99979.32;3524300;83;33074;-92
2022/12/31 09:41:37;;;;;;;9.80;4.33;;;;;;;10.86;100.00;99969.50;3519697;82;98501;-91
2022/12/31 09:47:26;;;;;;;9.15;4.00;;;;;;;10.94;100.00;99960.67;3530157;82;33759;-88
2022/12/31 09:52:50;;;;;;;7.22;3.25;;;;;;;11.03;100.00;99975.66;3526311;82;98287;-91
2022/12/31 09:58:25;;;;;;;8.85;4.62;;;;;;;11.15;100.00;99966.22;3529651;82;33185;-91
2022/12/31 10:03:34;;;;;;;9.15;4.30;;;;;;;11.25;100.00;99954.44;3510237;82;98747;-89
2022/12/31 10:09:05;;;;;;;7.17;3.70;;;;;;;11.38;100.00;99950.90;3518211;82;33168;-89
2022/12/31 10:14:49;;;;;;;7.85;4.12;;;;;;;11.50;100.00;99956.61;3521555;82;99006;-93
2022/12/31 10:20:49;;;;;;;9.10;4.33;;;;;;;11.68;100.00;99963.73;3509097;82;33122;-89
2022/12/31 10:26:10;;;;;;;10.25;3.87;;;;;;;11.84;100.00;99957.79;3530898;83;98550;-84
2022/12/31 10:31:49;;;;;;;8.93;3.70;;;;;;;11.99;100.00;99941.42;3529179;83;99201;-90
2022/12/31 10:37:07;;;;;;;7.17;3.60;;;;;;;12.14;100.00;99940.17;3507669;82;33681;-95
2022/12/31 10:42:46;;;;;;;9.65;4.60;;;;;;;12.30;100.00;99936.38;3526593;82;98975;-89
2022/12/31 10:48:16;;;;;;;7.33;3.50;;;;;;;12.44;100.00;99916.40;3538805;82;37227;-91
2022/12/31 10:54:08;;;;;;;8.13;3.27;;;;;;;12.61;100.00;99910.61;3524600;82;98726;-93
2022/12/31 10:59:39;;;;;;;6.78;3.00;;;;;;;12.79;100.00;99903.00;3526895;82;33217;-91
2022/12/31 11:05:27;;;;;;;10.38;3.27;;;;;;;12.95;100.00;99890.86;3530711;82;98529;-89
2022/12/31 11:11:05;;;;;;;8.88;3.45;;;;;;;13.15;100.00;99881.69;3537364;82;33072;-90
2022/12/31 11:16:40;;;;;;;9.50;3.87;;;;;;;13.36;99.29;99891.77;3538276;82;33851;-87
2022/12/31 11:22:41;;;;;;;6.33;2.75;;;;;;;13.67;98.41;99883.75;3525990;82;98799;-92
2022/12/31 11:28:11;;;;;;;8.88;4.20;;;;;;;13.83;98.12;99901.95;3539111;82;33548;-91
2022/12/31 11:33:26;;;;;;;7.55;3.27;;;;;;;13.83;98.12;99901.95;3534424;82;98938;-88
2022/12/31 11:38:31;;;;;;;8.75;3.37;;;;;;;14.01;97.35;99888.12;3539693;83;33597;-91
2022/12/31 11:43:45;;;;;;;6.60;2.98;;;;;;;14.15;97.01;99865.83;3533772;83;98344;-96
2022/12/31 11:49:10;;;;;;;8.90;3.58;;;;;;;14.29;96.66;99868.43;3537986;83;33214;-94
2022/12/31 11:54:52;;;;;;;9.00;3.55;;;;;;;14.37;96.57;99863.59;3533255;82;98108;-93
2022/12/31 12:00:00;;;;;;;11.15;3.25;;;;;;;14.53;95.73;99874.26;3538792;80;31174;-93
2022/12/31 12:05:05;;;;;;;7.58;3.15;;;;;;;14.53;95.73;99874.26;3531356;82;98568;-91
2022/12/31 12:10:28;;;;;;;8.85;3.37;;;;;;;14.57;95.67;99883.31;3550748;81;33095;-89
2022/12/31 12:15:33;;;;;;;8.10;3.05;;;;;;;14.62;95.96;99884.81;3546608;82;98629;-94
2022/12/31 12:20:39;;;;;;;7.67;3.20;;;;;;;14.68;95.69;99899.17;3555309;82;26181;-88
2022/12/31 12:25:43;;;;;;;8.47;3.00;;;;;;;14.76;95.51;99892.91;3549134;81;98200;-92
2022/12/31 12:30:59;;;;;;;7.50;3.45;;;;;;;14.83;95.51;99875.59;3552911;82;33199;-92
2022/12/31 12:36:15;;;;;;;5.42;2.25;;;;;;;14.94;95.24;99877.59;3557488;82;33662;-91
2022/12/31 12:41:25;;;;;;;;;;;;;;;15.06;94.79;99905.34;3530939;81;98847;-92
2022/12/31 12:46:47;;;;;;;8.05;3.00;;;;;;;15.19;93.82;99902.15;3561675;82;25917;-90
2022/12/31 12:51:56;;;;;;;6.97;2.45;;;;;;;15.29;93.18;99890.91;3547830;81;98715;-87
2022/12/31 12:57:25;;;;;;;5.65;2.25;;;;;;;15.36;93.20;99893.58;3562670;82;33045;-95
2022/12/31 13:02:58;;;;;;;6.47;2.62;;;;;;;15.43;92.64;99896.23;3553093;81;98592;-88
2022/12/31 13:08:34;;;;;;;5.47;2.35;;;;;;;15.46;92.34;99881.53;3560233;81;25726;-94
2022/12/31 13:14:01;;;;;;;5.87;2.20;;;;;;;15.53;91.53;99885.55;3552392;82;99317;-93
2022/12/31 13:19:11;;;;;;;7.47;2.90;;;;;;;15.54;91.51;99878.80;3539879;82;33047;-91
2022/12/31 13:24:45;;;;;;;4.22;2.12;;;;;;;15.53;91.32;99880.01;3545804;82;98730;-93
2022/12/31 13:29:47;;;;;;;6.40;2.30;;;;;;;15.52;90.67;99880.43;3560588;82;33223;-95
2022/12/31 13:34:58;;;;;;;8.00;3.45;;;;;;;15.39;91.05;99867.00;3547332;82;98186;-90
2022/12/31 13:40:05;;;;;;;7.42;3.15;;;;;;;15.50;91.18;99892.56;3528664;82;33276;-94
2022/12/31 13:45:17;;;;;;;6.97;2.15;;;;;;;15.38;91.26;99877.30;3534252;80;98488;-95
2022/12/31 13:50:32;;;;;;;7.97;3.02;;;;;;;15.50;91.34;99914.75;3558385;81;33954;-89
2022/12/31 13:55:45;;;;;;;7.55;2.77;;;;;;;15.51;91.03;99909.37;3549145;81;98362;-92
2022/12/31 14:01:03;;;;;;;6.97;2.92;;;;;;;15.53;90.96;99916.06;3545999;81;33511;-89
2022/12/31 14:06:25;;;;;;;8.63;3.10;;;;;;;15.52;91.01;99915.09;3552317;81;25336;-90
2022/12/31 14:11:51;;;;;;;9.20;3.35;;;;;;;15.48;91.24;99913.01;3544143;82;98832;-89
2022/12/31 14:17:06;;;;;;;8.50;3.05;;;;;;;15.47;91.33;99923.92;3558263;82;25757;-88
2022/12/31 14:22:22;;;;;;;9.07;3.63;;;;;;;15.45;91.13;99934.05;3535560;82;98756;-94
2022/12/31 14:27:40;;;;;;;8.00;3.90;;;;;;;15.47;91.18;99930.23;3554672;81;33234;-91
2022/12/31 14:33:10;;;;;;;9.55;4.12;;;;;;;15.49;91.21;99923.66;3549553;81;98295;-90
2022/12/31 14:38:34;;;;;;;11.93;4.10;;;;;;;15.50;91.19;99922.47;3493269;81;33112;-87
2022/12/31 14:44:11;;;;;;;7.80;3.15;;;;;;;15.52;91.02;99933.92;3544266;81;98798;-94
2022/12/31 14:49:27;;;;;;;9.45;3.30;;;;;;;15.54;91.02;99942.59;3553260;81;33598;-90
2022/12/31 14:54:37;;;;;;;9.53;3.80;;;;;;;15.53;90.94;99959.06;3539977;81;98552;-91
2022/12/31 14:59:37;;;;;;;10.05;3.58;;;;;;;15.56;91.02;99965.75;3550141;81;33095;-93
2022/12/31 15:04:44;;;;;;;8.00;3.23;;;;;;;15.56;90.92;99963.77;3544944;81;98388;-90
2022/12/31 15:10:22;;;;;;;7.83;2.77;;;;;;;15.60;90.83;99970.03;3550896;82;33095;-92
2022/12/31 15:15:41;;;;;;;9.03;3.65;;;;;;;15.63;90.43;99978.11;3547800;81;98105;-94
2022/12/31 15:21:02;;;;;;;9.00;3.95;;;;;;;15.63;90.80;99973.95;3552670;82;33122;-89
2022/12/31 15:26:05;;;;;;;9.03;3.50;;;;;;;15.61;90.77;99979.14;3552991;81;33154;-89
2022/12/31 15:31:15;;;;;;;8.35;3.77;;;;;;;15.57;90.66;99982.57;3550067;82;98831;-93
2022/12/31 15:36:20;;;;;;;9.83;4.53;;;;;;;15.52;90.39;99969.17;3556379;82;31160;-90
2022/12/31 15:41:29;;;;;;;10.72;4.60;;;;;;;15.45;90.74;99972.88;3552235;81;98510;-91
2022/12/31 15:46:35;;;;;;;12.78;5.47;;;;;;;15.39;90.82;99991.78;3542977;81;33263;-91
2022/12/31 15:52:05;;;;;;;13.65;5.12;;;;;;;15.14;91.16;99962.22;3547574;82;98601;-91
2022/12/31 15:57:14;;;;;;;9.98;4.40;;;;;;;15.26;91.41;99994.93;3557087;82;33759;-84
2022/12/31 16:02:25;;;;;;;10.55;4.55;;;;;;;15.19;91.57;99999.17;3546520;82;99403;-85
2022/12/31 16:07:27;;;;;;;9.73;3.80;;;;;;;15.13;91.80;100007.77;3559494;81;33076;-93
2022/12/31 16:12:32;;;;;;;9.38;3.95;;;;;;;15.09;92.00;100006.44;3561019;81;98922;-88
2022/12/31 16:17:35;;;;;;;10.90;4.45;;;;;;;15.08;92.08;100022.09;3574800;80;25761;-90
2022/12/31 16:22:38;;;;;;;11.43;5.00;;;;;;;14.99;92.20;100017.69;3560822;81;98992;-91
2022/12/31 16:27:39;;;;;;;10.80;5.03;;;;;;;15.00;92.24;100049.73;3564953;82;33062;-91
2022/12/31 16:32:40;;;;;;;9.37;4.40;;;;;;;14.93;92.41;100046.44;3558536;81;98794;-96
2022/12/31 16:37:41;;;;;;;14.43;6.57;;;;;;;14.86;92.57;100045.74;3565825;82;31580;-90
2022/12/31 16:42:45;;;;;;;13.17;5.63;;;;;;;14.81;92.68;100054.51;3530794;81;99024;-94
2022/12/31 16:47:47;;;;;;;13.10;5.75;;;;;;;14.76;92.85;100057.14;3568178;82;33083;-90
2022/12/31 16:52:54;;;;;;;12.43;4.92;;;;;;;14.70;93.03;100066.31;3563139;81;99099;-93
2022/12/31 16:58:07;;;;;;;10.20;4.22;;;;;;;14.58;93.21;100080.11;3560345;81;33101;-94
2022/12/31 17:03:23;;;;;;;9.20;4.37;;;;;;;14.58;93.21;100080.11;3549154;81;99459;-95
2022/12/31 17:08:27;;;;;;;;;;;;;;;14.55;93.56;100086.45;3562002;81;25829;-95
2022/12/31 17:13:33;;;;;;;11.68;5.15;;;;;;;14.50;93.80;100084.75;3528951;82;85290;-92
2022/12/31 17:18:38;;;;;;;18.10;8.60;;;;;;;14.47;93.99;100074.48;3539397;82;25742;-95
2022/12/31 17:23:40;;;;;;;16.42;7.80;;;;;;;14.45;94.13;100080.42;3504634;82;99145;-92
2022/12/31 17:28:46;;;;;;;16.67;8.50;;;;;;;14.42;94.22;100080.47;3536505;82;33186;-90
2022/12/31 17:33:47;;;;;;;21.73;9.73;;;;;;;14.38;94.39;100081.13;3531539;82;98922;-92
2022/12/31 17:38:49;;;;;;;17.30;7.53;;;;;;;14.34;94.55;100090.81;3503124;83;31562;-93
2022/12/31 17:43:53;;;;;;;16.50;7.90;;;;;;;14.31;94.75;100104.70;3525862;83;99128;-94
2022/12/31 17:49:13;;;;;;;17.57;7.12;;;;;;;14.27;94.92;100106.70;3536893;83;25620;-91
2022/12/31 17:54:13;;;;;;;18.25;8.68;;;;;;;14.23;95.14;100112.28;3527587;82;99266;-91
2022/12/31 17:59:24;;;;;;;17.52;6.97;;;;;;;14.19;95.29;100124.00;3531581;82;33130;-92
2022/12/31 18:04:25;;;;;;;17.02;7.00;;;;;;;14.16;95.50;100113.70;3525530;82;98539;-95
2022/12/31 18:09:26;;;;;;;14.97;6.87;;;;;;;14.15;95.61;100104.41;3535927;82;31577;-93
2022/12/31 18:14:27;;;;;;;13.47;6.03;;;;;;;14.12;95.78;100127.39;3537189;82;98619;-95
2022/12/31 18:19:27;;;;;;;15.40;8.43;;;;;;;14.10;95.92;100120.87;3536593;83;32195;-95
2022/12/31 18:24:28;;;;;;;13.30;6.43;;;;;;;14.09;96.02;100117.12;3532316;80;98039;-92
2022/12/31 18:29:46;;;;;;;14.20;5.33;;;;;;;14.05;96.10;100105.28;3535820;82;31138;-95
2022/12/31 18:35:23;;;;;;;12.15;5.70;;;;;;;14.04;96.22;100089.30;3523926;82;99808;-95
2022/12/31 18:40:24;;;;;;;14.05;6.65;;;;;;;14.00;96.29;100083.00;3536504;82;33280;-96
2022/12/31 18:45:28;;;;;;;13.35;6.03;;;;;;;13.97;96.44;100088.56;3533094;82;99138;-86
2022/12/31 18:50:29;;;;;;;12.23;5.70;;;;;;;13.95;96.56;100082.05;3542345;82;33735;-94
2022/12/31 18:55:40;;;;;;;13.27;6.13;;;;;;;13.94;96.63;100094.31;3534393;83;98480;-88
2022/12/31 19:00:42;;;;;;;14.55;6.42;;;;;;;13.93;96.69;100095.52;3533608;82;33157;-90
2022/12/31 19:05:45;;;;;;;12.70;5.78;;;;;;;13.92;96.73;100094.53;3529934;82;98887;-89
2022/12/31 19:10:49;;;;;;;12.15;6.33;;;;;;;13.82;96.99;100079.59;3539820;83;33800;-92
2022/12/31 19:15:52;;;;;;;13.13;6.80;;;;;;;13.82;96.99;100079.59;3527435;82;98881;-85
2022/12/31 19:20:53;;;;;;;12.85;4.50;;;;;;;13.98;96.88;100110.30;3535425;82;33720;-93
2022/12/31 19:25:53;;;;;;;15.23;5.90;;;;;;;13.98;96.88;100110.30;3532719;82;98530;-94
2022/12/31 19:30:54;;;;;;;13.80;5.23;;;;;;;14.00;96.81;100115.43;3538326;82;31597;-90
2022/12/31 19:35:58;;;;;;;12.30;5.00;;;;;;;14.02;96.74;100117.19;3530264;82;98902;-92
2022/12/31 19:41:00;;;;;;;13.38;5.20;;;;;;;14.02;96.69;100115.80;3537593;83;33908;-84
2022/12/31 19:46:02;;;;;;;11.12;5.33;;;;;;;14.04;96.62;100118.94;3541355;83;33157;-93
2022/12/31 19:51:10;;;;;;;13.13;5.80;;;;;;;14.03;96.54;100110.45;3530442;82;99203;-87
2022/12/31 19:56:17;;;;;;;15.00;5.65;;;;;;;14.06;96.47;100122.87;3537342;82;33121;-95
2022/12/31 20:01:21;;;;;;;13.57;5.30;;;;;;;14.06;96.47;100108.27;3534154;81;99064;-92
2022/12/31 20:06:22;;;;;;;11.65;4.92;;;;;;;14.06;96.43;100109.03;3541653;82;33039;-90
2022/12/31 20:11:23;;;;;;;14.00;6.30;;;;;;;14.10;96.36;100113.95;3546234;82;98703;-94
2022/12/31 20:16:32;;;;;;;11.50;4.63;;;;;;;14.13;96.26;100117.30;3554591;82;31670;-89
2022/12/31 20:21:33;;;;;;;11.73;5.33;;;;;;;14.01;95.92;100100.40;3550201;82;98889;-95
2022/12/31 20:26:33;;;;;;;9.43;4.40;;;;;;;14.01;95.92;100100.40;3550838;82;32311;-90
2022/12/31 20:31:34;;;;;;;10.15;4.30;;;;;;;14.10;96.01;100122.84;3555147;82;98326;-94
2022/12/31 20:36:37;;;;;;;9.87;4.23;;;;;;;14.12;95.92;100124.00;3562258;80;31644;-93
2022/12/31 20:41:38;;;;;;;9.73;4.12;;;;;;;14.15;95.82;100115.48;3548838;81;98989;-88
2022/12/31 20:46:39;;;;;;;11.33;3.53;;;;;;;14.22;95.61;100126.55;3554883;82;32107;-89
2022/12/31 20:51:40;;;;;;;9.57;3.67;;;;;;;14.24;95.32;100134.63;3553826;81;98791;-90
2022/12/31 20:56:41;;;;;;;8.43;3.40;;;;;;;14.25;95.12;100132.63;3555471;82;31577;-91
2022/12/31 21:01:42;;;;;;;9.27;4.03;;;;;;;14.29;95.04;100143.09;3548508;81;98953;-94
2022/12/31 21:06:43;;;;;;;12.07;4.73;;;;;;;14.32;94.86;100136.13;3557299;82;31545;-94
2022/12/31 21:17:04;;;;;;;10.50;4.20;;;;;;;14.37;94.50;100127.39;3415494;85;33071;-92
2022/12/31 21:22:05;;;;;;;8.30;3.80;;;;;;;14.39;94.42;100136.06;3515978;81;98957;-96
2022/12/31 21:27:06;;;;;;;11.03;4.50;;;;;;;14.33;94.29;100125.24;3538601;82;31563;-90
2022/12/31 21:32:07;;;;;;;10.13;3.87;;;;;;;14.44;93.97;100141.16;3559459;81;99039;-90
2022/12/31 21:37:07;;;;;;;9.97;4.00;;;;;;;14.49;93.89;100121.34;3568105;81;32052;-93
2022/12/31 21:42:08;;;;;;;9.80;4.03;;;;;;;14.52;93.74;100132.19;3560035;82;98618;-92
2022/12/31 21:52:33;;;;;;;14.30;8.98;;;;;;;14.62;93.34;100154.27;3558207;81;99256;-90
2022/12/31 21:57:34;;;;;;;9.80;3.63;;;;;;;14.62;93.08;100154.84;3566474;81;25742;-92
2022/12/31 22:07:53;;;;;;;8.68;3.67;;;;;;;14.69;92.58;100142.30;3568266;81;33516;-93
2022/12/31 22:12:54;;;;;;;9.80;4.43;;;;;;;14.69;92.39;100142.30;3560084;82;98890;-89
2022/12/31 22:17:55;;;;;;;7.87;3.53;;;;;;;14.67;92.39;100139.17;3564184;81;31528;-95
2022/12/31 22:22:56;;;;;;;10.27;4.00;;;;;;;14.64;92.26;100145.52;3556853;81;98349;-92
2022/12/31 22:27:56;;;;;;;9.50;4.10;;;;;;;14.60;92.38;100134.48;3567680;81;31123;-93
2022/12/31 22:32:57;;;;;;;9.33;4.70;;;;;;;14.56;92.43;100132.33;3561234;81;98519;-91
2022/12/31 22:37:58;;;;;;;9.93;3.80;;;;;;;14.52;92.48;100127.45;3578373;80;31424;-93
2022/12/31 22:42:59;;;;;;;8.93;3.53;;;;;;;14.48;92.48;100130.84;3561451;81;98936;-96
2022/12/31 22:48:00;;;;;;;10.90;4.23;;;;;;;14.47;92.48;100138.97;3573700;81;26026;-84
2022/12/31 22:53:00;;;;;;;9.50;3.73;;;;;;;14.45;92.38;100133.66;3561106;81;98888;-93
2022/12/31 22:58:01;;;;;;;9.57;3.37;;;;;;;14.45;92.44;100135.03;3566235;82;25785;-86
2022/12/31 23:03:03;;;;;;;14.37;7.60;;;;;;;14.45;92.08;100142.73;3562712;81;98514;-93
2022/12/31 23:08:03;;;;;;;22.07;13.97;;;;;;;14.48;92.00;100147.46;3568755;81;26168;-94
2022/12/31 23:23:42;;;;;;;24.00;15.25;;;;;;;14.52;91.61;100141.30;3533686;82;99223;-94
2022/12/31 23:28:43;;;;;;;23.67;12.40;;;;;;;14.58;91.43;100159.63;3540710;83;25788;-94
2022/12/31 23:33:44;;;;;;;19.53;12.30;;;;;;;14.62;91.03;100161.77;3533349;82;99273;-93
2022/12/31 23:38:44;;;;;;;22.87;13.07;;;;;;;14.66;90.54;100158.38;3540854;82;25915;-89
2022/12/31 23:43:46;;;;;;;23.47;14.57;;;;;;;14.67;90.50;100162.09;3534684;82;98876;-91
2022/12/31 23:48:46;;;;;;;20.40;12.37;;;;;;;14.68;90.25;100158.16;3539342;82;35319;-92
2022/12/31 23:53:47;;;;;;;18.43;10.90;;;;;;;14.65;90.24;100150.66;3534183;82;99498;-91
2022/12/31 23:58:55;;;;;;;14.77;8.40;;;;;;;14.63;90.24;100154.44;3539191;82;35269;-94
